createdAt,value
2022-12-13T01:15:26.201Z,3.44
2022-12-13T01:18:34.379Z,3.14
2022-12-13T01:21:39.718Z,3.13
2022-12-13T01:24:46.050Z,3.14
2022-12-13T01:27:53.988Z,3.09
2022-12-13T01:30:58.814Z,3.29
2022-12-13T01:34:04.923Z,3.36
2022-12-13T01:37:10.360Z,3.49
2022-12-13T01:40:17.059Z,3.41
2022-12-13T01:43:25.471Z,3.31
2022-12-13T01:46:31.464Z,3.27
2022-12-13T01:49:36.094Z,3.31
2022-12-13T01:52:44.948Z,3.37
2022-12-13T01:55:52.573Z,3.42
2022-12-13T01:58:59.072Z,3.42
2022-12-13T02:02:04.358Z,3.47
2022-12-13T02:05:22.148Z,3.69
2022-12-13T02:08:28.159Z,3.57
2022-12-13T02:11:34.514Z,3.62
2022-12-13T02:14:41.108Z,3.67
2022-12-13T02:18:18.719Z,3.68
2022-12-13T02:21:35.004Z,3.70
2022-12-13T02:25:10.081Z,3.70
2022-12-13T02:28:45.661Z,3.68
2022-12-13T02:32:18.156Z,3.57
2022-12-13T02:35:47.551Z,3.49
2022-12-13T02:39:14.123Z,3.49
2022-12-13T02:42:32.652Z,3.46
2022-12-13T02:45:57.535Z,3.45
2022-12-13T02:49:02.211Z,3.44
2022-12-13T02:52:07.552Z,3.42
2022-12-13T02:55:12.326Z,3.42
2022-12-13T02:58:18.115Z,3.42
2022-12-13T03:01:50.494Z,3.41
2022-12-13T03:06:00.244Z,3.46
2022-12-13T03:09:03.400Z,3.42
2022-12-13T03:13:13.624Z,3.28
2022-12-13T03:16:40.746Z,3.33
2022-12-13T03:19:45.446Z,3.42
2022-12-13T03:22:51.420Z,3.50
2022-12-13T03:25:57.818Z,3.49
2022-12-13T03:29:03.854Z,3.50
2022-12-13T03:32:11.336Z,3.39
2022-12-13T03:35:22.160Z,3.42
2022-12-13T03:38:24.151Z,3.48
2022-12-13T03:41:34.919Z,3.53
2022-12-13T03:44:40.302Z,3.47
2022-12-13T03:47:46.032Z,3.46
2022-12-13T03:50:50.898Z,3.41
2022-12-13T03:53:57.256Z,3.32
2022-12-13T03:57:03.118Z,3.24
2022-12-13T04:00:09.539Z,3.24
2022-12-13T04:03:15.035Z,3.11
2022-12-13T04:06:22.241Z,2.99
2022-12-13T04:09:26.636Z,2.88
2022-12-13T04:12:49.393Z,2.80
2022-12-13T04:15:58.036Z,2.79
2022-12-13T04:19:03.267Z,2.78
2022-12-13T04:22:08.962Z,2.81
2022-12-13T04:25:15.177Z,2.78
2022-12-13T04:28:22.313Z,2.77
2022-12-13T04:31:28.737Z,2.78
2022-12-13T04:34:37.494Z,2.77
2022-12-13T04:37:43.363Z,2.68
2022-12-13T04:40:50.112Z,2.58
2022-12-13T04:43:55.566Z,2.51
2022-12-13T04:47:01.097Z,2.49
2022-12-13T04:50:06.819Z,2.48
2022-12-13T04:53:04.879Z,2.43
2022-12-13T04:56:11.014Z,2.39
2022-12-13T04:59:15.714Z,2.35
2022-12-13T05:02:23.573Z,2.29
2022-12-13T05:05:27.868Z,2.21
2022-12-13T05:08:33.155Z,2.21
2022-12-13T05:11:38.746Z,2.17
2022-12-13T05:14:45.889Z,2.20
2022-12-13T05:17:51.491Z,2.21
2022-12-13T05:20:57.787Z,2.16
2022-12-13T05:24:03.301Z,2.11
2022-12-13T05:27:24.569Z,2.03
2022-12-13T05:30:15.325Z,2.00
2022-12-13T05:33:19.927Z,1.97
2022-12-13T05:36:25.947Z,2.08
2022-12-13T05:39:32.624Z,2.13
2022-12-13T05:42:38.313Z,2.10
2022-12-13T05:45:45.107Z,2.21
2022-12-13T05:48:51.733Z,2.15
2022-12-13T05:51:57.681Z,2.22
2022-12-13T05:55:05.140Z,2.25
2022-12-13T05:58:13.349Z,2.28
2022-12-13T06:01:22.139Z,2.28
2022-12-13T06:04:27.536Z,2.40
2022-12-13T06:07:34.110Z,2.47
2022-12-13T06:10:39.570Z,2.50
2022-12-13T06:13:44.592Z,2.84
2022-12-13T06:16:51.637Z,6.89
2022-12-13T06:19:58.099Z,7.29
2022-12-13T06:23:02.760Z,7.66
2022-12-13T06:26:01.330Z,7.40
2022-12-13T06:29:00.262Z,7.38
2022-12-13T06:32:11.139Z,6.89
2022-12-13T06:35:27.293Z,6.48
2022-12-13T06:38:31.526Z,6.69
2022-12-13T06:41:32.204Z,6.79
2022-12-13T06:44:37.459Z,6.90
2022-12-13T06:47:42.932Z,7.07
2022-12-13T06:50:48.948Z,7.00
2022-12-13T06:53:55.417Z,6.81
2022-12-13T06:57:01.802Z,6.58
2022-12-13T07:00:06.643Z,6.46
2022-12-13T07:03:11.968Z,6.61
2022-12-13T07:06:29.560Z,6.75
2022-12-13T07:09:40.064Z,6.81
2022-12-13T07:12:47.916Z,6.61
2022-12-13T07:15:54.233Z,6.76
2022-12-13T07:19:01.619Z,6.59
2022-12-13T07:22:07.065Z,6.80
2022-12-13T07:25:27.947Z,7.11
2022-12-13T07:28:24.126Z,7.25
2022-12-13T07:31:30.889Z,8.19
2022-12-13T07:34:35.654Z,7.63
2022-12-13T07:37:42.761Z,7.18
2022-12-13T07:40:52.210Z,7.37
2022-12-13T07:43:57.908Z,6.90
2022-12-13T07:47:02.830Z,6.94
2022-12-13T07:50:24.307Z,7.18
2022-12-13T07:53:18.575Z,7.25
2022-12-13T07:56:25.135Z,7.18
2022-12-13T07:59:28.428Z,6.91
2022-12-13T08:02:33.310Z,6.77
2022-12-13T08:05:39.384Z,6.81
2022-12-13T08:08:45.342Z,7.01
2022-12-13T08:11:50.932Z,6.84
2022-12-13T08:14:56.177Z,6.86
2022-12-13T08:18:02.413Z,6.98
2022-12-13T08:21:37.280Z,6.93
2022-12-13T08:24:15.303Z,6.99
2022-12-13T08:27:06.401Z,7.10
2022-12-13T08:30:13.609Z,6.60
2022-12-13T08:33:19.759Z,6.62
2022-12-13T08:36:29.460Z,6.63
2022-12-13T08:39:36.467Z,6.82
2022-12-13T08:42:43.030Z,7.01
2022-12-13T08:45:48.919Z,7.16
2022-12-13T08:48:55.564Z,7.43
2022-12-13T08:52:01.541Z,6.91
2022-12-13T08:55:01.807Z,7.01
2022-12-13T08:58:08.995Z,6.82
2022-12-13T09:01:13.637Z,7.04
2022-12-13T09:04:31.500Z,7.09
2022-12-13T09:07:28.810Z,7.14
2022-12-13T09:10:38.712Z,7.22
2022-12-13T09:13:44.776Z,7.06
2022-12-13T09:16:51.696Z,7.21
2022-12-13T09:19:57.954Z,7.30
2022-12-13T09:23:04.186Z,7.30
2022-12-13T09:26:10.732Z,7.28
2022-12-13T09:29:17.260Z,7.27
2022-12-13T09:32:21.928Z,7.28
2022-12-13T09:35:27.473Z,7.16
2022-12-13T09:38:33.129Z,7.38
2022-12-13T09:41:53.782Z,7.30
2022-12-13T09:45:22.196Z,7.33
2022-12-13T09:48:14.521Z,7.50
2022-12-13T09:51:28.347Z,7.39
2022-12-13T09:54:44.818Z,7.38
2022-12-13T09:57:45.998Z,7.43
2022-12-13T10:00:51.094Z,7.66
2022-12-13T10:03:58.580Z,7.70
2022-12-13T10:07:08.536Z,7.64
2022-12-13T10:10:15.523Z,7.88
2022-12-13T10:13:37.202Z,7.71
2022-12-13T10:16:51.883Z,7.46
2022-12-13T10:19:59.537Z,7.76
2022-12-13T10:26:14.874Z,7.87
2022-12-13T10:29:18.824Z,7.86
2022-12-13T10:32:28.358Z,7.73
2022-12-13T10:35:46.207Z,7.63
2022-12-13T10:38:54.435Z,7.50
2022-12-13T10:41:59.126Z,7.53
2022-12-13T10:45:04.627Z,7.42
2022-12-13T10:48:10.592Z,7.42
2022-12-13T10:51:21.685Z,7.45
2022-12-13T10:54:38.240Z,7.40
2022-12-13T10:57:40.276Z,7.38
2022-12-13T11:00:56.007Z,7.54
2022-12-13T11:04:25.411Z,7.50
2022-12-13T11:07:45.744Z,7.51
2022-12-13T11:10:52.768Z,7.77
2022-12-13T11:15:09.809Z,7.71
2022-12-13T11:18:34.581Z,7.80
2022-12-13T11:21:45.096Z,7.85
2022-12-13T11:24:54.494Z,7.87
2022-12-13T11:28:31.930Z,7.87
2022-12-13T11:31:59.610Z,7.64
2022-12-13T11:35:05.673Z,7.75
2022-12-13T11:38:07.964Z,7.46
2022-12-13T11:41:32.371Z,7.36
2022-12-13T11:45:22.785Z,7.32
2022-12-13T11:48:45.538Z,7.17
2022-12-13T11:52:06.159Z,7.44
2022-12-13T11:55:32.322Z,7.19
2022-12-13T11:59:24.066Z,7.00
2022-12-13T12:02:44.329Z,6.55
2022-12-13T12:05:56.230Z,6.48
2022-12-13T12:09:08.300Z,6.48
2022-12-13T12:12:22.089Z,6.27
2022-12-13T12:15:41.483Z,6.07
2022-12-13T12:18:42.159Z,5.84
2022-12-13T12:22:15.387Z,5.87
2022-12-13T12:25:42.506Z,5.76
2022-12-13T12:29:19.437Z,5.59
2022-12-13T12:32:48.611Z,5.42
2022-12-13T12:36:20.111Z,5.34
2022-12-13T12:39:40.510Z,5.44
2022-12-13T12:43:18.758Z,5.16
2022-12-13T12:47:08.793Z,4.99
2022-12-13T12:50:11.441Z,4.83
2022-12-13T12:53:54.690Z,4.62
2022-12-13T12:57:39.570Z,4.66
2022-12-13T13:00:55.332Z,4.59
2022-12-13T13:04:02.321Z,4.61
2022-12-13T13:07:31.251Z,4.48
2022-12-13T13:10:32.741Z,4.35
2022-12-13T13:14:01.642Z,4.42
2022-12-13T13:17:08.900Z,4.22
2022-12-13T13:20:39.320Z,4.00
2022-12-13T13:23:46.764Z,4.41
2022-12-13T13:27:01.456Z,4.30
2022-12-13T13:30:07.133Z,4.25
2022-12-13T13:33:12.485Z,4.28
2022-12-13T13:36:29.001Z,4.49
2022-12-13T13:39:36.760Z,4.42
2022-12-13T13:42:45.663Z,4.33
2022-12-13T13:46:14.584Z,4.31
2022-12-13T13:49:21.908Z,4.25
2022-12-13T13:52:36.727Z,4.33
2022-12-13T13:56:14.116Z,4.33
2022-12-13T13:59:50.910Z,4.32
2022-12-13T14:03:34.840Z,4.15
2022-12-13T14:07:27.011Z,4.41
2022-12-13T14:10:58.383Z,4.38
2022-12-13T14:14:52.120Z,4.13
2022-12-13T14:18:49.064Z,3.83
2022-12-13T14:22:24.805Z,3.66
2022-12-13T14:25:59.092Z,3.71
2022-12-13T14:29:11.151Z,3.71
2022-12-13T14:32:26.581Z,3.79
2022-12-13T14:35:45.177Z,3.58
2022-12-13T14:38:51.194Z,3.56
2022-12-13T14:42:03.230Z,3.49
2022-12-13T14:45:08.341Z,3.64
2022-12-13T14:48:28.096Z,3.71
2022-12-13T14:51:47.218Z,3.66
2022-12-13T14:55:15.850Z,3.54
2022-12-13T14:58:32.570Z,3.56
2022-12-13T15:01:53.586Z,3.65
2022-12-13T15:05:00.019Z,3.77
2022-12-13T15:08:10.785Z,3.94
2022-12-13T15:11:14.243Z,3.90
2022-12-13T15:14:21.182Z,3.78
2022-12-13T15:17:43.110Z,3.60
2022-12-13T15:20:54.456Z,3.62
2022-12-13T15:24:02.676Z,3.50
2022-12-13T15:27:11.500Z,3.50
2022-12-13T15:30:17.646Z,3.44
2022-12-13T15:33:44.035Z,3.42
2022-12-13T15:36:44.454Z,3.52
2022-12-13T15:39:54.087Z,3.60
2022-12-13T15:43:00.886Z,3.50
2022-12-13T15:46:06.963Z,3.65
2022-12-13T15:49:14.479Z,3.72
2022-12-13T15:52:22.613Z,4.01
2022-12-13T15:55:33.026Z,3.97
2022-12-13T15:58:48.010Z,4.05
2022-12-13T19:15:55.148Z,3.22
2022-12-13T19:19:01.445Z,3.13
2022-12-13T19:22:07.260Z,3.35
2022-12-13T19:25:12.373Z,3.33
2022-12-13T19:28:21.493Z,2.88
2022-12-13T19:31:32.025Z,3.23
2022-12-13T19:34:37.726Z,3.19
2022-12-13T19:37:44.486Z,3.06
2022-12-13T19:40:49.406Z,3.08
2022-12-13T19:43:59.810Z,3.00
2022-12-13T19:47:06.847Z,2.97
2022-12-13T19:50:13.446Z,2.98
2022-12-13T19:53:18.383Z,3.13
2022-12-13T19:56:25.921Z,3.47
2022-12-13T19:59:31.223Z,3.49
2022-12-13T20:02:36.527Z,3.50
2022-12-13T20:05:36.220Z,3.52
2022-12-13T20:08:41.848Z,3.54
2022-12-13T20:11:48.849Z,3.57
2022-12-13T20:14:55.759Z,3.51
2022-12-13T20:18:02.535Z,3.60
2022-12-13T20:21:21.793Z,3.39
2022-12-13T20:24:28.005Z,3.39
2022-12-13T20:27:33.726Z,3.36
2022-12-13T20:30:40.453Z,3.15
2022-12-13T20:33:45.564Z,3.15
2022-12-13T20:36:51.950Z,3.27
2022-12-13T20:39:58.185Z,3.20
2022-12-13T20:43:04.745Z,3.03
2022-12-13T20:46:21.269Z,3.04
2022-12-13T20:49:28.071Z,2.91
2022-12-13T20:52:32.904Z,2.91
2022-12-13T20:55:39.047Z,2.80
2022-12-13T20:58:44.589Z,2.79
2022-12-13T21:01:51.847Z,2.76
2022-12-13T21:04:57.271Z,2.69
2022-12-13T21:08:19.773Z,2.76
2022-12-13T21:11:27.630Z,2.69
2022-12-13T21:14:40.132Z,2.92
2022-12-13T21:17:45.516Z,2.95
2022-12-13T21:20:45.630Z,3.02
2022-12-13T21:23:31.120Z,3.08
2022-12-13T21:26:28.701Z,2.94
2022-12-13T21:29:21.471Z,2.95
2022-12-13T21:32:27.147Z,3.00
2022-12-13T21:35:32.105Z,2.88
2022-12-13T21:38:37.577Z,2.69
2022-12-13T21:41:43.925Z,2.63
2022-12-13T21:44:51.501Z,2.55
2022-12-13T21:47:58.232Z,2.65
2022-12-13T21:51:06.299Z,2.98
2022-12-13T21:54:11.692Z,2.73
2022-12-13T21:57:29.109Z,2.87
2022-12-13T22:00:24.014Z,2.62
2022-12-13T22:03:27.139Z,2.72
2022-12-13T22:06:33.049Z,2.67
2022-12-13T22:09:38.674Z,2.69
2022-12-13T22:12:49.452Z,2.51
2022-12-13T22:15:54.809Z,2.53
2022-12-13T22:18:59.971Z,2.67
2022-12-13T22:22:04.878Z,2.68
2022-12-13T22:25:11.195Z,2.69
2022-12-13T22:28:17.947Z,2.87
2022-12-13T22:31:28.136Z,2.85
2022-12-13T22:34:31.587Z,2.99
2022-12-13T22:37:37.557Z,2.91
2022-12-13T22:40:43.225Z,2.86
2022-12-13T22:43:52.558Z,2.92
2022-12-13T22:46:58.588Z,3.00
2022-12-13T22:50:04.582Z,2.73
2022-12-13T22:53:10.438Z,2.64
2022-12-13T22:56:22.855Z,2.58
2022-12-13T22:59:21.373Z,2.58
2022-12-13T23:02:27.918Z,2.52
2022-12-13T23:05:34.743Z,2.35
2022-12-13T23:08:43.559Z,2.47
2022-12-13T23:12:06.634Z,2.35
2022-12-13T23:15:11.725Z,2.33
2022-12-13T23:18:16.877Z,2.25
2022-12-13T23:21:22.500Z,2.11
2022-12-13T23:24:28.884Z,2.15
2022-12-13T23:27:34.542Z,2.02
2022-12-13T23:30:39.381Z,2.15
2022-12-13T23:33:44.028Z,2.11
2022-12-13T23:36:48.969Z,2.01
2022-12-13T23:39:54.332Z,1.85
2022-12-13T23:43:00.140Z,1.78
2022-12-13T23:46:05.139Z,1.85
2022-12-13T23:49:12.080Z,1.86
2022-12-13T23:52:17.452Z,1.88
2022-12-13T23:55:22.814Z,1.91
2022-12-13T23:58:28.176Z,1.97
